ICAO code: LHPR | IATA code: QGY | SITA: QGYAPXH | AFTN: LHPRZPZX

Időjárási adatok

METAR LHPR 191245Z AUTO VRB02KT 1300 R30/P1500 -RASN OVC002 01/00 Q1030=
TAF LHPR 191115Z 1912/1921 VRB02KT 5000 -RASN BR BKN005 BKN040
TEMPO 1912/1921 35007KT 1500 SN RASN OVC002=
Hó, gyenge
2020-01-19 12:50:00 UTC
Hőmérséklet
0.5 °C
 
Harmatpont
0.3 °C
 
Rel. páratartalom
98%
 
QNH
1030.7 hPa
 
Szélsebesség
0.6 m/s
Max
1.1 m/s
Szélirány
260°
 
Csapadék (1 óra)
0.3 mm
 
Látótávolság
1274 m
 
RVR
>1500 m RWY30
 
1. felhőréteg mennyisége
8 octa
 
1. felhőréteg alapja
80 m